sensor_id;sensor_type;location;lat;lon;timestamp;temperature;humidity
2955;DHT22;1487;51.470;6.938;2023-12-20T00:00:49;7.50;99.90
2955;DHT22;1487;51.470;6.938;2023-12-20T00:03:16;7.50;99.90
2955;DHT22;1487;51.470;6.938;2023-12-20T00:05:43;7.50;99.90
2955;DHT22;1487;51.470;6.938;2023-12-20T00:08:09;7.40;99.90
2955;DHT22;1487;51.470;6.938;2023-12-20T00:10:36;7.40;99.90
2955;DHT22;1487;51.470;6.938;2023-12-20T00:13:03;7.40;99.90
2955;DHT22;1487;51.470;6.938;2023-12-20T00:15:33;7.40;99.90
2955;DHT22;1487;51.470;6.938;2023-12-20T00:18:00;7.30;99.90
2955;DHT22;1487;51.470;6.938;2023-12-20T00:20:27;7.30;99.90
2955;DHT22;1487;51.470;6.938;2023-12-20T00:22:55;7.20;99.90
2955;DHT22;1487;51.470;6.938;2023-12-20T00:25:23;7.20;99.90
2955;DHT22;1487;51.470;6.938;2023-12-20T00:27:50;7.20;99.90
2955;DHT22;1487;51.470;6.938;2023-12-20T00:30:16;7.10;99.90
2955;DHT22;1487;51.470;6.938;2023-12-20T00:32:45;7.10;99.90
2955;DHT22;1487;51.470;6.938;2023-12-20T00:35:12;7.10;99.90
2955;DHT22;1487;51.470;6.938;2023-12-20T00:37:39;7.10;99.90
2955;DHT22;1487;51.470;6.938;2023-12-20T00:40:07;7.10;99.90
2955;DHT22;1487;51.470;6.938;2023-12-20T00:42:33;7.10;99.90
2955;DHT22;1487;51.470;6.938;2023-12-20T00:45:01;7.00;99.90
2955;DHT22;1487;51.470;6.938;2023-12-20T00:47:27;7.00;99.90
2955;DHT22;1487;51.470;6.938;2023-12-20T00:49:55;7.00;99.90
2955;DHT22;1487;51.470;6.938;2023-12-20T00:52:22;7.00;99.90
2955;DHT22;1487;51.470;6.938;2023-12-20T00:54:49;7.00;99.90
2955;DHT22;1487;51.470;6.938;2023-12-20T00:57:16;7.00;99.90
2955;DHT22;1487;51.470;6.938;2023-12-20T00:59:42;7.00;99.90
2955;DHT22;1487;51.470;6.938;2023-12-20T01:02:09;7.00;99.90
2955;DHT22;1487;51.470;6.938;2023-12-20T01:04:36;7.00;99.90
2955;DHT22;1487;51.470;6.938;2023-12-20T01:07:04;7.00;99.90
2955;DHT22;1487;51.470;6.938;2023-12-20T01:09:31;7.00;99.90
2955;DHT22;1487;51.470;6.938;2023-12-20T01:11:58;7.00;99.90
2955;DHT22;1487;51.470;6.938;2023-12-20T01:14:24;6.90;99.90
2955;DHT22;1487;51.470;6.938;2023-12-20T01:16:50;6.90;99.90
2955;DHT22;1487;51.470;6.938;2023-12-20T01:19:17;6.90;99.90
2955;DHT22;1487;51.470;6.938;2023-12-20T01:21:44;6.90;99.90
2955;DHT22;1487;51.470;6.938;2023-12-20T01:24:12;6.90;99.90
2955;DHT22;1487;51.470;6.938;2023-12-20T01:26:39;6.80;99.90
2955;DHT22;1487;51.470;6.938;2023-12-20T01:29:05;6.80;99.90
2955;DHT22;1487;51.470;6.938;2023-12-20T01:31:32;6.80;99.90
2955;DHT22;1487;51.470;6.938;2023-12-20T01:33:59;6.80;99.90
2955;DHT22;1487;51.470;6.938;2023-12-20T01:36:26;6.70;99.90
2955;DHT22;1487;51.470;6.938;2023-12-20T01:38:52;6.70;99.90
2955;DHT22;1487;51.470;6.938;2023-12-20T01:41:20;6.70;99.90
2955;DHT22;1487;51.470;6.938;2023-12-20T01:43:47;6.70;99.90
2955;DHT22;1487;51.470;6.938;2023-12-20T01:46:14;6.70;99.90
2955;DHT22;1487;51.470;6.938;2023-12-20T01:48:42;6.60;99.90
2955;DHT22;1487;51.470;6.938;2023-12-20T01:51:09;6.60;99.90
2955;DHT22;1487;51.470;6.938;2023-12-20T01:53:38;6.60;99.90
2955;DHT22;1487;51.470;6.938;2023-12-20T01:56:05;6.60;99.90
2955;DHT22;1487;51.470;6.938;2023-12-20T01:58:34;6.60;99.90
2955;DHT22;1487;51.470;6.938;2023-12-20T02:01:01;6.50;99.90
2955;DHT22;1487;51.470;6.938;2023-12-20T02:03:27;6.40;99.90
2955;DHT22;1487;51.470;6.938;2023-12-20T02:05:54;6.30;99.90
2955;DHT22;1487;51.470;6.938;2023-12-20T02:08:21;6.30;99.90
2955;DHT22;1487;51.470;6.938;2023-12-20T02:10:48;6.20;99.90
2955;DHT22;1487;51.470;6.938;2023-12-20T02:13:15;6.20;99.90
2955;DHT22;1487;51.470;6.938;2023-12-20T02:15:43;6.30;99.90
2955;DHT22;1487;51.470;6.938;2023-12-20T02:18:10;6.30;99.90
2955;DHT22;1487;51.470;6.938;2023-12-20T02:20:40;6.40;99.90
2955;DHT22;1487;51.470;6.938;2023-12-20T02:23:08;6.30;99.90
2955;DHT22;1487;51.470;6.938;2023-12-20T02:25:35;6.30;99.90
2955;DHT22;1487;51.470;6.938;2023-12-20T02:28:04;6.30;99.90
2955;DHT22;1487;51.470;6.938;2023-12-20T02:30:32;6.40;99.90
2955;DHT22;1487;51.470;6.938;2023-12-20T02:32:59;6.40;99.90
2955;DHT22;1487;51.470;6.938;2023-12-20T02:35:27;6.40;99.90
2955;DHT22;1487;51.470;6.938;2023-12-20T02:37:54;6.40;99.90
2955;DHT22;1487;51.470;6.938;2023-12-20T02:40:22;6.40;99.90
2955;DHT22;1487;51.470;6.938;2023-12-20T02:42:49;6.40;99.90
2955;DHT22;1487;51.470;6.938;2023-12-20T02:45:15;6.40;99.90
2955;DHT22;1487;51.470;6.938;2023-12-20T02:47:42;6.40;99.90
2955;DHT22;1487;51.470;6.938;2023-12-20T02:50:09;6.30;99.90
2955;DHT22;1487;51.470;6.938;2023-12-20T02:52:36;6.30;99.90
2955;DHT22;1487;51.470;6.938;2023-12-20T02:55:03;6.30;99.90
2955;DHT22;1487;51.470;6.938;2023-12-20T02:57:31;6.30;99.90
2955;DHT22;1487;51.470;6.938;2023-12-20T02:59:59;6.30;99.90
2955;DHT22;1487;51.470;6.938;2023-12-20T03:02:25;6.30;99.90
2955;DHT22;1487;51.470;6.938;2023-12-20T03:04:52;6.20;99.90
2955;DHT22;1487;51.470;6.938;2023-12-20T03:07:20;6.10;99.90
2955;DHT22;1487;51.470;6.938;2023-12-20T03:09:46;6.10;99.90
2955;DHT22;1487;51.470;6.938;2023-12-20T03:12:13;6.10;99.90
2955;DHT22;1487;51.470;6.938;2023-12-20T03:14:41;6.00;99.90
2955;DHT22;1487;51.470;6.938;2023-12-20T03:17:08;6.00;99.90
2955;DHT22;1487;51.470;6.938;2023-12-20T03:19:35;5.90;99.90
2955;DHT22;1487;51.470;6.938;2023-12-20T03:22:01;5.90;99.90
2955;DHT22;1487;51.470;6.938;2023-12-20T03:24:28;5.90;99.90
2955;DHT22;1487;51.470;6.938;2023-12-20T03:26:55;5.80;99.90
2955;DHT22;1487;51.470;6.938;2023-12-20T03:29:22;5.80;99.90
2955;DHT22;1487;51.470;6.938;2023-12-20T03:31:50;5.80;99.90
2955;DHT22;1487;51.470;6.938;2023-12-20T03:34:17;5.80;99.90
2955;DHT22;1487;51.470;6.938;2023-12-20T03:36:44;5.70;99.90
2955;DHT22;1487;51.470;6.938;2023-12-20T03:39:13;5.70;99.90
2955;DHT22;1487;51.470;6.938;2023-12-20T03:41:40;5.60;99.90
2955;DHT22;1487;51.470;6.938;2023-12-20T03:44:06;5.60;99.90
2955;DHT22;1487;51.470;6.938;2023-12-20T03:46:33;5.60;99.90
2955;DHT22;1487;51.470;6.938;2023-12-20T03:49:01;5.70;99.90
2955;DHT22;1487;51.470;6.938;2023-12-20T03:51:28;5.60;99.90
2955;DHT22;1487;51.470;6.938;2023-12-20T03:53:55;5.60;99.90
2955;DHT22;1487;51.470;6.938;2023-12-20T03:56:21;5.60;99.90
2955;DHT22;1487;51.470;6.938;2023-12-20T03:58:48;5.50;99.90
2955;DHT22;1487;51.470;6.938;2023-12-20T04:01:15;5.50;99.90
2955;DHT22;1487;51.470;6.938;2023-12-20T04:03:42;5.50;99.90
2955;DHT22;1487;51.470;6.938;2023-12-20T04:06:10;5.40;99.90
2955;DHT22;1487;51.470;6.938;2023-12-20T04:08:36;5.50;99.90
2955;DHT22;1487;51.470;6.938;2023-12-20T04:11:03;5.40;99.90
2955;DHT22;1487;51.470;6.938;2023-12-20T04:13:30;5.50;99.90
2955;DHT22;1487;51.470;6.938;2023-12-20T04:15:57;5.50;99.90
2955;DHT22;1487;51.470;6.938;2023-12-20T04:18:23;5.50;99.90
2955;DHT22;1487;51.470;6.938;2023-12-20T04:20:50;5.50;99.90
2955;DHT22;1487;51.470;6.938;2023-12-20T04:23:19;5.50;99.90
2955;DHT22;1487;51.470;6.938;2023-12-20T04:25:46;5.50;99.90
2955;DHT22;1487;51.470;6.938;2023-12-20T04:28:12;5.60;99.90
2955;DHT22;1487;51.470;6.938;2023-12-20T04:30:39;5.60;99.90
2955;DHT22;1487;51.470;6.938;2023-12-20T04:33:06;5.70;99.90
2955;DHT22;1487;51.470;6.938;2023-12-20T04:35:33;5.70;99.90
2955;DHT22;1487;51.470;6.938;2023-12-20T04:38:03;5.70;99.90
2955;DHT22;1487;51.470;6.938;2023-12-20T04:40:31;5.70;99.90
2955;DHT22;1487;51.470;6.938;2023-12-20T04:42:58;5.70;99.90
2955;DHT22;1487;51.470;6.938;2023-12-20T04:45:24;5.70;99.90
2955;DHT22;1487;51.470;6.938;2023-12-20T04:47:51;5.70;99.90
2955;DHT22;1487;51.470;6.938;2023-12-20T04:50:19;5.70;99.90
2955;DHT22;1487;51.470;6.938;2023-12-20T04:52:47;5.70;99.90
2955;DHT22;1487;51.470;6.938;2023-12-20T04:55:14;5.70;99.90
2955;DHT22;1487;51.470;6.938;2023-12-20T04:57:42;5.70;99.90
2955;DHT22;1487;51.470;6.938;2023-12-20T05:00:09;5.80;99.90
2955;DHT22;1487;51.470;6.938;2023-12-20T05:02:36;5.80;99.90
2955;DHT22;1487;51.470;6.938;2023-12-20T05:05:03;5.80;99.90
2955;DHT22;1487;51.470;6.938;2023-12-20T05:07:30;5.80;99.90
2955;DHT22;1487;51.470;6.938;2023-12-20T05:09:57;5.80;99.90
2955;DHT22;1487;51.470;6.938;2023-12-20T05:12:23;5.80;99.90
2955;DHT22;1487;51.470;6.938;2023-12-20T05:14:52;5.70;99.90
2955;DHT22;1487;51.470;6.938;2023-12-20T05:17:19;5.70;99.90
2955;DHT22;1487;51.470;6.938;2023-12-20T05:19:46;5.70;99.90
2955;DHT22;1487;51.470;6.938;2023-12-20T05:22:13;5.70;99.90
2955;DHT22;1487;51.470;6.938;2023-12-20T05:24:40;5.70;99.90
2955;DHT22;1487;51.470;6.938;2023-12-20T05:27:07;5.60;99.90
2955;DHT22;1487;51.470;6.938;2023-12-20T05:29:33;5.70;99.90
2955;DHT22;1487;51.470;6.938;2023-12-20T05:32:01;5.70;99.90
2955;DHT22;1487;51.470;6.938;2023-12-20T05:34:30;5.60;99.90
2955;DHT22;1487;51.470;6.938;2023-12-20T05:36:58;5.60;99.90
2955;DHT22;1487;51.470;6.938;2023-12-20T05:39:24;5.70;99.90
2955;DHT22;1487;51.470;6.938;2023-12-20T05:41:51;5.60;99.90
2955;DHT22;1487;51.470;6.938;2023-12-20T05:44:18;5.60;99.90
2955;DHT22;1487;51.470;6.938;2023-12-20T05:46:45;5.60;99.90
2955;DHT22;1487;51.470;6.938;2023-12-20T05:49:13;5.60;99.90
2955;DHT22;1487;51.470;6.938;2023-12-20T05:51:40;5.60;99.90
2955;DHT22;1487;51.470;6.938;2023-12-20T05:54:07;5.60;99.90
2955;DHT22;1487;51.470;6.938;2023-12-20T05:56:34;5.60;99.90
2955;DHT22;1487;51.470;6.938;2023-12-20T05:59:01;5.60;99.90
2955;DHT22;1487;51.470;6.938;2023-12-20T06:01:28;5.60;99.90
2955;DHT22;1487;51.470;6.938;2023-12-20T06:03:55;5.60;99.90
2955;DHT22;1487;51.470;6.938;2023-12-20T06:06:23;5.60;99.90
2955;DHT22;1487;51.470;6.938;2023-12-20T06:08:50;5.70;99.90
2955;DHT22;1487;51.470;6.938;2023-12-20T06:11:17;5.70;99.90
2955;DHT22;1487;51.470;6.938;2023-12-20T06:13:44;5.70;99.90
2955;DHT22;1487;51.470;6.938;2023-12-20T06:16:11;5.70;99.90
2955;DHT22;1487;51.470;6.938;2023-12-20T06:18:38;5.70;99.90
2955;DHT22;1487;51.470;6.938;2023-12-20T06:21:05;5.80;99.90
2955;DHT22;1487;51.470;6.938;2023-12-20T06:23:34;5.70;99.90
2955;DHT22;1487;51.470;6.938;2023-12-20T06:26:01;5.80;99.90
2955;DHT22;1487;51.470;6.938;2023-12-20T06:28:28;5.80;99.90
2955;DHT22;1487;51.470;6.938;2023-12-20T06:30:55;5.90;99.90
2955;DHT22;1487;51.470;6.938;2023-12-20T06:33:22;5.90;99.90
2955;DHT22;1487;51.470;6.938;2023-12-20T06:35:49;5.90;99.90
2955;DHT22;1487;51.470;6.938;2023-12-20T06:38:18;5.90;99.90
2955;DHT22;1487;51.470;6.938;2023-12-20T06:40:46;5.90;99.90
2955;DHT22;1487;51.470;6.938;2023-12-20T06:43:13;5.90;99.90
2955;DHT22;1487;51.470;6.938;2023-12-20T06:45:40;6.00;99.90
2955;DHT22;1487;51.470;6.938;2023-12-20T06:48:07;6.00;99.90
2955;DHT22;1487;51.470;6.938;2023-12-20T06:53:09;6.00;99.90
2955;DHT22;1487;51.470;6.938;2023-12-20T06:55:36;6.00;99.90
2955;DHT22;1487;51.470;6.938;2023-12-20T06:58:05;6.00;99.90
2955;DHT22;1487;51.470;6.938;2023-12-20T07:00:32;6.00;99.90
2955;DHT22;1487;51.470;6.938;2023-12-20T07:02:59;6.00;99.90
2955;DHT22;1487;51.470;6.938;2023-12-20T07:05:29;6.10;99.90
2955;DHT22;1487;51.470;6.938;2023-12-20T07:07:56;6.10;99.90
2955;DHT22;1487;51.470;6.938;2023-12-20T07:10:23;6.10;99.90
2955;DHT22;1487;51.470;6.938;2023-12-20T07:12:49;6.10;99.90
2955;DHT22;1487;51.470;6.938;2023-12-20T07:15:18;6.10;99.90
2955;DHT22;1487;51.470;6.938;2023-12-20T07:17:45;6.10;99.90
2955;DHT22;1487;51.470;6.938;2023-12-20T07:20:12;6.10;99.90
2955;DHT22;1487;51.470;6.938;2023-12-20T07:25:19;6.20;99.90
2955;DHT22;1487;51.470;6.938;2023-12-20T07:27:46;6.20;99.90
2955;DHT22;1487;51.470;6.938;2023-12-20T07:30:14;6.20;99.90
2955;DHT22;1487;51.470;6.938;2023-12-20T07:32:42;6.20;99.90
2955;DHT22;1487;51.470;6.938;2023-12-20T07:35:09;6.20;99.90
2955;DHT22;1487;51.470;6.938;2023-12-20T07:37:36;6.20;99.90
2955;DHT22;1487;51.470;6.938;2023-12-20T07:40:03;6.20;99.90
2955;DHT22;1487;51.470;6.938;2023-12-20T07:42:30;6.30;99.90
2955;DHT22;1487;51.470;6.938;2023-12-20T07:44:57;6.30;99.90
2955;DHT22;1487;51.470;6.938;2023-12-20T07:47:23;6.30;99.90
2955;DHT22;1487;51.470;6.938;2023-12-20T07:49:52;6.30;99.90
2955;DHT22;1487;51.470;6.938;2023-12-20T07:52:19;6.30;99.90
2955;DHT22;1487;51.470;6.938;2023-12-20T07:54:47;6.30;99.90
2955;DHT22;1487;51.470;6.938;2023-12-20T07:57:14;6.30;99.90
2955;DHT22;1487;51.470;6.938;2023-12-20T07:59:40;6.30;99.90
2955;DHT22;1487;51.470;6.938;2023-12-20T08:02:07;6.40;99.90
2955;DHT22;1487;51.470;6.938;2023-12-20T08:04:34;6.40;99.90
2955;DHT22;1487;51.470;6.938;2023-12-20T08:07:03;6.40;99.90
2955;DHT22;1487;51.470;6.938;2023-12-20T08:09:29;6.40;99.90
2955;DHT22;1487;51.470;6.938;2023-12-20T08:11:57;6.40;99.90
2955;DHT22;1487;51.470;6.938;2023-12-20T08:14:25;6.40;99.90
2955;DHT22;1487;51.470;6.938;2023-12-20T08:16:52;6.40;99.90
2955;DHT22;1487;51.470;6.938;2023-12-20T08:19:18;6.50;99.90
2955;DHT22;1487;51.470;6.938;2023-12-20T08:21:45;6.50;99.90
2955;DHT22;1487;51.470;6.938;2023-12-20T08:24:13;6.50;99.90
2955;DHT22;1487;51.470;6.938;2023-12-20T08:26:40;6.50;99.90
2955;DHT22;1487;51.470;6.938;2023-12-20T08:29:07;6.50;99.90
2955;DHT22;1487;51.470;6.938;2023-12-20T08:31:33;6.50;99.90
2955;DHT22;1487;51.470;6.938;2023-12-20T08:34:00;6.50;99.90
2955;DHT22;1487;51.470;6.938;2023-12-20T08:36:27;6.50;99.90
2955;DHT22;1487;51.470;6.938;2023-12-20T08:38:54;6.50;99.90
2955;DHT22;1487;51.470;6.938;2023-12-20T08:41:22;6.50;99.90
2955;DHT22;1487;51.470;6.938;2023-12-20T08:43:49;6.60;99.90
2955;DHT22;1487;51.470;6.938;2023-12-20T08:46:16;6.60;99.90
2955;DHT22;1487;51.470;6.938;2023-12-20T08:48:43;6.50;99.90
2955;DHT22;1487;51.470;6.938;2023-12-20T08:51:10;6.50;99.90
2955;DHT22;1487;51.470;6.938;2023-12-20T08:53:37;6.50;99.90
2955;DHT22;1487;51.470;6.938;2023-12-20T08:56:04;6.50;99.90
2955;DHT22;1487;51.470;6.938;2023-12-20T08:58:32;6.50;99.90
2955;DHT22;1487;51.470;6.938;2023-12-20T09:01:01;6.50;99.90
2955;DHT22;1487;51.470;6.938;2023-12-20T09:03:28;6.50;99.90
2955;DHT22;1487;51.470;6.938;2023-12-20T09:05:54;6.60;99.90
2955;DHT22;1487;51.470;6.938;2023-12-20T09:08:21;6.60;99.90
2955;DHT22;1487;51.470;6.938;2023-12-20T09:10:48;6.60;99.90
2955;DHT22;1487;51.470;6.938;2023-12-20T09:13:15;6.60;99.90
2955;DHT22;1487;51.470;6.938;2023-12-20T09:15:43;6.60;99.90
2955;DHT22;1487;51.470;6.938;2023-12-20T09:18:10;6.60;99.90
2955;DHT22;1487;51.470;6.938;2023-12-20T09:20:37;6.60;99.90
2955;DHT22;1487;51.470;6.938;2023-12-20T09:23:04;6.60;99.90
2955;DHT22;1487;51.470;6.938;2023-12-20T09:25:31;6.60;99.90
2955;DHT22;1487;51.470;6.938;2023-12-20T09:27:58;6.60;99.90
2955;DHT22;1487;51.470;6.938;2023-12-20T09:30:25;6.60;99.90
2955;DHT22;1487;51.470;6.938;2023-12-20T09:32:53;6.60;99.90
2955;DHT22;1487;51.470;6.938;2023-12-20T09:35:20;6.60;99.90
2955;DHT22;1487;51.470;6.938;2023-12-20T09:37:48;6.60;99.90
2955;DHT22;1487;51.470;6.938;2023-12-20T09:40:17;6.60;99.90
2955;DHT22;1487;51.470;6.938;2023-12-20T09:42:48;6.60;99.90
2955;DHT22;1487;51.470;6.938;2023-12-20T09:45:20;6.70;99.90
2955;DHT22;1487;51.470;6.938;2023-12-20T09:47:47;6.60;99.90
2955;DHT22;1487;51.470;6.938;2023-12-20T09:50:18;6.60;99.90
2955;DHT22;1487;51.470;6.938;2023-12-20T09:52:52;6.60;99.90
2955;DHT22;1487;51.470;6.938;2023-12-20T09:55:21;6.60;99.90
2955;DHT22;1487;51.470;6.938;2023-12-20T09:57:48;6.60;99.90
2955;DHT22;1487;51.470;6.938;2023-12-20T10:00:16;6.70;99.90
2955;DHT22;1487;51.470;6.938;2023-12-20T10:02:50;6.70;99.90
2955;DHT22;1487;51.470;6.938;2023-12-20T10:05:26;6.60;99.90
2955;DHT22;1487;51.470;6.938;2023-12-20T10:07:53;6.70;99.90
2955;DHT22;1487;51.470;6.938;2023-12-20T10:10:20;6.70;99.90
2955;DHT22;1487;51.470;6.938;2023-12-20T10:13:02;6.70;99.90
2955;DHT22;1487;51.470;6.938;2023-12-20T10:15:29;6.70;99.90
2955;DHT22;1487;51.470;6.938;2023-12-20T10:17:56;6.70;99.90
2955;DHT22;1487;51.470;6.938;2023-12-20T10:20:24;6.70;99.90
2955;DHT22;1487;51.470;6.938;2023-12-20T10:22:52;6.70;99.90
2955;DHT22;1487;51.470;6.938;2023-12-20T10:25:19;6.70;99.90
2955;DHT22;1487;51.470;6.938;2023-12-20T10:27:46;6.80;99.90
2955;DHT22;1487;51.470;6.938;2023-12-20T10:30:14;6.80;99.90
2955;DHT22;1487;51.470;6.938;2023-12-20T10:32:41;6.80;99.90
2955;DHT22;1487;51.470;6.938;2023-12-20T10:35:08;6.80;99.90
2955;DHT22;1487;51.470;6.938;2023-12-20T10:37:37;6.90;99.90
2955;DHT22;1487;51.470;6.938;2023-12-20T10:40:05;6.90;99.90
2955;DHT22;1487;51.470;6.938;2023-12-20T10:42:32;6.90;99.90
2955;DHT22;1487;51.470;6.938;2023-12-20T10:45:00;7.00;99.90
2955;DHT22;1487;51.470;6.938;2023-12-20T10:47:27;6.90;99.90
2955;DHT22;1487;51.470;6.938;2023-12-20T10:49:57;7.00;99.90
2955;DHT22;1487;51.470;6.938;2023-12-20T10:52:25;7.00;99.90
2955;DHT22;1487;51.470;6.938;2023-12-20T10:54:54;7.00;99.90
2955;DHT22;1487;51.470;6.938;2023-12-20T10:57:21;7.00;99.90
2955;DHT22;1487;51.470;6.938;2023-12-20T10:59:50;7.00;99.90
2955;DHT22;1487;51.470;6.938;2023-12-20T11:02:20;7.00;99.90
2955;DHT22;1487;51.470;6.938;2023-12-20T11:04:53;7.00;99.90
2955;DHT22;1487;51.470;6.938;2023-12-20T11:07:24;7.00;99.90
2955;DHT22;1487;51.470;6.938;2023-12-20T11:09:59;7.00;99.90
2955;DHT22;1487;51.470;6.938;2023-12-20T11:12:35;7.00;99.90
2955;DHT22;1487;51.470;6.938;2023-12-20T11:15:06;7.00;99.90
2955;DHT22;1487;51.470;6.938;2023-12-20T11:17:33;7.00;99.90
2955;DHT22;1487;51.470;6.938;2023-12-20T11:20:07;7.10;99.90
2955;DHT22;1487;51.470;6.938;2023-12-20T11:22:36;7.10;99.90
2955;DHT22;1487;51.470;6.938;2023-12-20T11:25:08;7.10;99.90
2955;DHT22;1487;51.470;6.938;2023-12-20T11:27:35;7.00;99.90
2955;DHT22;1487;51.470;6.938;2023-12-20T11:30:04;7.00;99.90
2955;DHT22;1487;51.470;6.938;2023-12-20T11:32:34;7.10;99.90
2955;DHT22;1487;51.470;6.938;2023-12-20T11:35:17;7.10;99.90
2955;DHT22;1487;51.470;6.938;2023-12-20T11:37:45;7.10;99.90
2955;DHT22;1487;51.470;6.938;2023-12-20T11:40:16;7.10;99.90
2955;DHT22;1487;51.470;6.938;2023-12-20T11:42:44;7.10;99.90
2955;DHT22;1487;51.470;6.938;2023-12-20T11:45:13;7.10;99.90
2955;DHT22;1487;51.470;6.938;2023-12-20T11:47:42;7.20;99.90
2955;DHT22;1487;51.470;6.938;2023-12-20T11:50:09;7.10;99.90
2955;DHT22;1487;51.470;6.938;2023-12-20T11:52:36;7.10;99.90
2955;DHT22;1487;51.470;6.938;2023-12-20T11:55:03;7.00;99.90
2955;DHT22;1487;51.470;6.938;2023-12-20T11:57:32;7.00;99.90
2955;DHT22;1487;51.470;6.938;2023-12-20T11:59:59;7.00;99.90
2955;DHT22;1487;51.470;6.938;2023-12-20T12:02:26;6.90;99.90
2955;DHT22;1487;51.470;6.938;2023-12-20T12:04:53;6.90;99.90
2955;DHT22;1487;51.470;6.938;2023-12-20T12:07:20;6.80;99.90
2955;DHT22;1487;51.470;6.938;2023-12-20T12:09:48;6.80;99.90
2955;DHT22;1487;51.470;6.938;2023-12-20T12:12:15;6.80;99.90
2955;DHT22;1487;51.470;6.938;2023-12-20T12:14:44;6.80;99.90
2955;DHT22;1487;51.470;6.938;2023-12-20T12:17:12;6.80;99.90
2955;DHT22;1487;51.470;6.938;2023-12-20T12:19:39;6.80;99.90
2955;DHT22;1487;51.470;6.938;2023-12-20T12:24:40;6.90;99.90
2955;DHT22;1487;51.470;6.938;2023-12-20T12:27:07;6.80;99.90
2955;DHT22;1487;51.470;6.938;2023-12-20T12:29:35;6.80;99.90
2955;DHT22;1487;51.470;6.938;2023-12-20T12:32:04;6.90;99.90
2955;DHT22;1487;51.470;6.938;2023-12-20T12:34:32;6.90;99.90
2955;DHT22;1487;51.470;6.938;2023-12-20T12:36:59;7.00;99.90
2955;DHT22;1487;51.470;6.938;2023-12-20T12:39:26;7.00;99.90
2955;DHT22;1487;51.470;6.938;2023-12-20T12:44:29;7.00;99.90
2955;DHT22;1487;51.470;6.938;2023-12-20T12:46:55;7.00;99.90
2955;DHT22;1487;51.470;6.938;2023-12-20T12:49:24;7.10;99.90
2955;DHT22;1487;51.470;6.938;2023-12-20T12:51:51;7.10;99.90
2955;DHT22;1487;51.470;6.938;2023-12-20T12:54:18;7.10;99.90
2955;DHT22;1487;51.470;6.938;2023-12-20T12:56:45;7.10;99.90
2955;DHT22;1487;51.470;6.938;2023-12-20T12:59:13;7.10;99.90
2955;DHT22;1487;51.470;6.938;2023-12-20T13:01:40;7.10;99.90
2955;DHT22;1487;51.470;6.938;2023-12-20T13:04:06;7.10;99.90
2955;DHT22;1487;51.470;6.938;2023-12-20T13:06:37;7.10;99.90
2955;DHT22;1487;51.470;6.938;2023-12-20T13:09:04;7.10;99.90
2955;DHT22;1487;51.470;6.938;2023-12-20T13:11:31;7.10;99.90
2955;DHT22;1487;51.470;6.938;2023-12-20T13:13:58;7.10;99.90
2955;DHT22;1487;51.470;6.938;2023-12-20T13:16:25;7.10;99.90
2955;DHT22;1487;51.470;6.938;2023-12-20T13:18:52;7.00;99.90
2955;DHT22;1487;51.470;6.938;2023-12-20T13:21:19;7.00;99.90
2955;DHT22;1487;51.470;6.938;2023-12-20T13:23:47;7.00;99.90
2955;DHT22;1487;51.470;6.938;2023-12-20T13:26:14;7.00;99.90
2955;DHT22;1487;51.470;6.938;2023-12-20T13:28:41;7.00;99.90
2955;DHT22;1487;51.470;6.938;2023-12-20T13:31:07;7.00;99.90
2955;DHT22;1487;51.470;6.938;2023-12-20T13:33:35;7.00;99.90
2955;DHT22;1487;51.470;6.938;2023-12-20T13:36:02;6.90;99.90
2955;DHT22;1487;51.470;6.938;2023-12-20T13:38:29;6.90;99.90
2955;DHT22;1487;51.470;6.938;2023-12-20T13:40:57;6.80;99.90
2955;DHT22;1487;51.470;6.938;2023-12-20T13:43:24;6.80;99.90
2955;DHT22;1487;51.470;6.938;2023-12-20T13:45:51;6.80;99.90
2955;DHT22;1487;51.470;6.938;2023-12-20T13:48:18;6.70;99.90
2955;DHT22;1487;51.470;6.938;2023-12-20T13:50:45;6.70;99.90
2955;DHT22;1487;51.470;6.938;2023-12-20T13:53:12;6.70;99.90
2955;DHT22;1487;51.470;6.938;2023-12-20T13:55:39;6.70;99.90
2955;DHT22;1487;51.470;6.938;2023-12-20T13:58:07;6.70;99.90
2955;DHT22;1487;51.470;6.938;2023-12-20T14:00:35;6.70;99.90
2955;DHT22;1487;51.470;6.938;2023-12-20T14:03:04;6.70;99.90
2955;DHT22;1487;51.470;6.938;2023-12-20T14:05:31;6.80;99.90
2955;DHT22;1487;51.470;6.938;2023-12-20T14:07:58;6.80;99.90
2955;DHT22;1487;51.470;6.938;2023-12-20T14:10:26;6.70;99.90
2955;DHT22;1487;51.470;6.938;2023-12-20T14:12:53;6.70;99.90
2955;DHT22;1487;51.470;6.938;2023-12-20T14:15:21;6.80;99.90
2955;DHT22;1487;51.470;6.938;2023-12-20T14:17:51;6.80;99.90
2955;DHT22;1487;51.470;6.938;2023-12-20T14:20:18;6.80;99.90
2955;DHT22;1487;51.470;6.938;2023-12-20T14:22:45;6.80;99.90
2955;DHT22;1487;51.470;6.938;2023-12-20T14:25:12;6.70;99.90
2955;DHT22;1487;51.470;6.938;2023-12-20T14:27:40;6.80;99.90
2955;DHT22;1487;51.470;6.938;2023-12-20T14:30:09;6.80;99.90
2955;DHT22;1487;51.470;6.938;2023-12-20T14:32:40;6.70;99.90
2955;DHT22;1487;51.470;6.938;2023-12-20T14:35:07;6.70;99.90
2955;DHT22;1487;51.470;6.938;2023-12-20T14:37:34;6.70;99.90
2955;DHT22;1487;51.470;6.938;2023-12-20T14:40:05;6.70;99.90
2955;DHT22;1487;51.470;6.938;2023-12-20T14:42:32;6.70;99.90
2955;DHT22;1487;51.470;6.938;2023-12-20T14:44:58;6.70;99.90
2955;DHT22;1487;51.470;6.938;2023-12-20T14:47:25;6.70;99.90
2955;DHT22;1487;51.470;6.938;2023-12-20T14:49:54;6.70;99.90
2955;DHT22;1487;51.470;6.938;2023-12-20T14:52:20;6.80;99.90
2955;DHT22;1487;51.470;6.938;2023-12-20T14:54:48;6.80;99.90
2955;DHT22;1487;51.470;6.938;2023-12-20T14:57:15;6.80;99.90
2955;DHT22;1487;51.470;6.938;2023-12-20T14:59:43;6.80;99.90
2955;DHT22;1487;51.470;6.938;2023-12-20T15:02:10;6.80;99.90
2955;DHT22;1487;51.470;6.938;2023-12-20T15:04:37;6.80;99.90
2955;DHT22;1487;51.470;6.938;2023-12-20T15:07:05;6.80;99.90
2955;DHT22;1487;51.470;6.938;2023-12-20T15:09:32;6.80;99.90
2955;DHT22;1487;51.470;6.938;2023-12-20T15:11:58;6.80;99.90
2955;DHT22;1487;51.470;6.938;2023-12-20T15:14:26;6.90;99.90
2955;DHT22;1487;51.470;6.938;2023-12-20T15:16:54;6.90;99.90
2955;DHT22;1487;51.470;6.938;2023-12-20T15:19:21;6.90;99.90
2955;DHT22;1487;51.470;6.938;2023-12-20T15:21:48;6.90;99.90
2955;DHT22;1487;51.470;6.938;2023-12-20T15:24:17;6.90;99.90
2955;DHT22;1487;51.470;6.938;2023-12-20T15:26:45;6.90;99.90
2955;DHT22;1487;51.470;6.938;2023-12-20T15:29:13;6.90;99.90
2955;DHT22;1487;51.470;6.938;2023-12-20T15:31:43;7.00;99.90
2955;DHT22;1487;51.470;6.938;2023-12-20T15:34:10;7.00;99.90
2955;DHT22;1487;51.470;6.938;2023-12-20T15:36:38;7.00;99.90
2955;DHT22;1487;51.470;6.938;2023-12-20T15:39:05;7.00;99.90
2955;DHT22;1487;51.470;6.938;2023-12-20T15:41:35;7.00;99.90
2955;DHT22;1487;51.470;6.938;2023-12-20T15:44:02;7.00;99.90
2955;DHT22;1487;51.470;6.938;2023-12-20T15:46:29;7.00;99.90
2955;DHT22;1487;51.470;6.938;2023-12-20T15:48:55;7.00;99.90
2955;DHT22;1487;51.470;6.938;2023-12-20T15:51:22;7.00;99.90
2955;DHT22;1487;51.470;6.938;2023-12-20T15:53:50;7.00;99.90
2955;DHT22;1487;51.470;6.938;2023-12-20T15:56:17;7.10;99.90
2955;DHT22;1487;51.470;6.938;2023-12-20T15:58:45;7.10;99.90
2955;DHT22;1487;51.470;6.938;2023-12-20T16:01:13;7.10;99.90
2955;DHT22;1487;51.470;6.938;2023-12-20T16:03:40;7.10;99.90
2955;DHT22;1487;51.470;6.938;2023-12-20T16:06:09;7.10;99.90
2955;DHT22;1487;51.470;6.938;2023-12-20T16:08:36;7.10;99.90
2955;DHT22;1487;51.470;6.938;2023-12-20T16:11:03;7.10;99.90
2955;DHT22;1487;51.470;6.938;2023-12-20T16:13:29;7.10;99.90
2955;DHT22;1487;51.470;6.938;2023-12-20T16:15:58;7.10;99.90
2955;DHT22;1487;51.470;6.938;2023-12-20T16:18:27;7.10;99.90
2955;DHT22;1487;51.470;6.938;2023-12-20T16:20:54;7.10;99.90
2955;DHT22;1487;51.470;6.938;2023-12-20T16:23:22;7.10;99.90
2955;DHT22;1487;51.470;6.938;2023-12-20T16:25:49;7.10;99.90
2955;DHT22;1487;51.470;6.938;2023-12-20T16:28:16;7.10;99.90